NDBC will be participating in PACIFEX26, a partner tabletop exercise with the Tsunami Warning Centers (TWCs) scheduled for May 05 at 1600 UTC. To simulate real-time tsunami observations, the exercise may involve activating Deep Ocean Assessment and Reporting of Tsunami (DART) buoys. For more information please see PNS26-39.

Station SKXA2 - Skagway MXAK, AK Image indicating link to RSS feed of recent meteorological observations for station SKXA2


Conditions at SKXA2 as of
(12:12 pm AKDT)
2012 GMT on 05/04/2026:
     

Click on the graph icon in the table below to see a time series plot of the last five days of that observation.

5-day plot - Wind Direction Wind Direction (WDIR): SW ( 230 deg true )
5-day plot - Wind Speed Wind Speed (WSPD): 2.9 kts
5-day plot - Wind Gust Wind Gust (GST): 5.1 kts
5-day plot - Air Temperature Air Temperature (ATMP): 51.6 °F
5-day plot - Dew Point Dew Point (DEWP): 42.4 °F
5-day plot - Wind Chill Wind Chill (CHILL): 51.3 °F
5-day plot - Wind Speed at 10 Meters Wind Speed at 10 meters (WSPD10M): 3.9 kts
5-day plot - Wind Speed at 20 Meters Wind Speed at 20 meters (WSPD20M): 3.9 kts
5-day plot -  Wind Speed, Wind Gust and Atmospheric Pressure Combined plot of Wind Speed, Gust, and Air Pressure
Previous observations
TIME
(AKDT)
5-day plot - Wind Direction
WDIR
 
5-day plot - Wind Speed
WSPD
kts
5-day plot - Wind Gust
GST
kts
5-day plot - Wave Height
WVHT
ft
5-day plot - Dominant Wave Period
DPD
sec
5-day plot - Average Wave Period
APD
sec
5-day plot - Mean Wave Direction
MWD
 
5-day plot - Atmospheric Pressure
PRES
in
5-day plot - Pressure Tendency
PTDY
in
5-day plot - Air Temperature
ATMP
°F
5-day plot - Water Temperature
WTMP
°F
5-day plot - Dew Point
DEWP
°F
5-day plot - Salinity
SAL
psu
5-day plot - Visibility
VIS
nmi
5-day plot - Tide (above MLLW)
TIDE
ft
2026-05-04 12:02 pm SW 1.9 5.1------ 54.3- 42.8---
2026-05-04 11:52 am SW 1.0 2.9------ 54.5- 41.4---
2026-05-04 11:42 amSSE 1.0 1.9------ 54.3- 41.5---
2026-05-04 11:32 amWSW 1.9 2.9------ 53.1- 41.5---
2026-05-04 11:22 am S 1.0 1.9------ 52.7- 41.2---
2026-05-04 11:12 amSSE 1.0 2.9------ 51.8- 42.6---
2026-05-04 11:02 am S 1.9 2.9------ 49.8- 42.3---
2026-05-04 10:52 amSSW 2.9 2.9------ 48.2- 42.1---
2026-05-04 10:42 am SW 1.9 4.1------ 47.7- 41.7---
2026-05-04 10:32 amSSW 2.9 2.9------ 46.6- 41.7---
2026-05-04 10:22 am SW 2.9 4.1------ 45.5- 41.2---
2026-05-04 10:12 am SW 1.9 2.9------ 44.8- 40.8---
2026-05-04 10:02 amWSW 2.9 4.1------ 44.4- 41.4---
2026-05-04 09:52 amWSW 1.9 2.9------ 45.5- 41.2---
2026-05-04 09:42 am SW 1.9 2.9------ 46.2- 41.0---
2026-05-04 09:32 am E 1.9 2.9------ 47.8- 41.9---
2026-05-04 09:22 amENE 1.9 4.1------ 46.8- 41.5---
2026-05-04 09:12 am E 1.0 1.9------ 47.1- 41.5---
2026-05-04 09:02 am- 0.0 1.0------ 47.3- 41.7---
2026-05-04 08:52 am- 0.0 1.9------ 47.1- 41.5---
2026-05-04 08:42 am SE 1.0 1.9------ 45.5- 40.3---
2026-05-04 08:32 am- 0.0 1.0------ 44.4- 40.3---
2026-05-04 08:22 am SW 1.0 1.9------ 43.3- 40.1---
2026-05-04 08:12 am SW 1.9 1.9------ 42.6- 39.4---
2026-05-04 08:02 am S 1.9 1.9------ 42.1- 39.4---
2026-05-04 07:52 amSSW 1.0 1.9------ 41.2- 38.8---
2026-05-04 07:42 amWSW 1.0 1.9------ 41.2- 38.8---
2026-05-04 07:32 am N 1.0 2.9------ 40.8- 38.5---
2026-05-04 07:22 amNNE 2.9 5.1------ 40.6- 38.3---
2026-05-04 07:12 am NE 2.9 5.1------ 40.3- 37.9---
2026-05-04 07:02 am N 2.9 5.1------ 40.1- 37.8---
2026-05-04 06:52 am NE 2.9 6.0------ 39.9- 37.6---
2026-05-04 06:42 am NE 2.9 6.0------ 39.7- 37.4---
2026-05-04 06:32 amNNE 1.0 2.9------ 39.4- 37.0---
2026-05-04 06:22 am NE 1.0 2.9------ 39.6- 37.2---
2026-05-04 06:12 amNNE 2.9 4.1------ 39.2- 36.9---
2026-05-04 06:02 am NE 1.9 5.1------ 38.8- 36.5---
2026-05-04 05:52 am- 0.0 1.9------ 39.2- 36.9---
2026-05-04 05:42 am NW 1.0 2.9------ 39.2- 36.9---
2026-05-04 05:32 amNNE 1.0 1.9------ 38.8- 36.5---
2026-05-04 05:22 am NE 1.9 2.9------ 39.0- 36.7---
2026-05-04 05:12 amNNE 1.0 1.9------ 39.6- 37.2---
2026-05-04 05:02 am N 1.9 2.9------ 39.6- 37.2---
2026-05-04 04:52 amENE 1.9 4.1------ 40.1- 37.8---
2026-05-04 04:42 am N 1.9 2.9------ 39.7- 37.4---
2026-05-04 04:32 amNNE 1.9 2.9------ 39.6- 36.9---
2026-05-04 04:22 amNNE 1.9 2.9------ 39.9- 37.2---
2026-05-04 04:12 amNNE 2.9 4.1------ 40.3- 37.6---
2026-05-04 04:02 amNNE 1.9 2.9------ 40.3- 37.6---
2026-05-04 03:52 amENE 1.9 4.1------ 40.5- 37.8---
2026-05-04 03:42 amNNE 1.9 2.9------ 41.0- 37.9---
2026-05-04 03:32 amNNE 1.9 2.9------ 41.4- 38.3---
2026-05-04 03:22 amENE 1.9 1.9------ 41.9- 39.2---
2026-05-04 03:12 amESE 1.9 1.9------ 42.1- 39.4---
2026-05-04 03:02 amSSE 1.0 2.9------ 42.1- 39.4---
2026-05-04 02:52 amNNW 1.9 5.1------ 42.4- 39.7---
2026-05-04 02:42 am NE 2.9 4.1------ 42.3- 39.0---
2026-05-04 02:32 amENE 4.1 5.1------ 42.6- 39.4---
2026-05-04 02:22 am N 1.9 4.1------ 43.0- 39.7---
2026-05-04 02:12 amNNE 2.9 5.1------ 42.6- 39.4---
2026-05-04 02:02 amENE 2.9 5.1------ 42.6- 39.4---
2026-05-04 01:52 amNNE 4.1 5.1------ 43.2- 39.9---
2026-05-04 01:42 amNNE 4.1 5.1------ 43.7- 40.1---
2026-05-04 01:32 am NE 2.9 5.1------ 43.2- 39.6---
2026-05-04 01:22 am NE 2.9 4.1------ 44.4- 40.8---
2026-05-04 01:12 amNNE 1.9 4.1------ 44.6- 41.0---
2026-05-04 01:02 amENE 2.9 2.9------ 45.1- 41.5---
2026-05-04 12:52 am NE 1.9 1.9------ 45.9- 41.9---
2026-05-04 12:42 am E 1.9 2.9------ 46.0- 42.1---
2026-05-04 12:32 am NE 1.0 1.9------ 46.2- 42.3---
2026-05-04 12:22 amNNW 1.9 4.1------ 46.4- 42.4---
2026-05-04 12:12 am N 2.9 6.0------ 46.6- 42.3---
2026-05-04 12:02 am NE 4.1 6.0------ 46.9- 42.6---
2026-05-03 11:52 pm E 1.0 1.9------ 46.9- 42.6---
2026-05-03 11:42 pm E 1.9 1.9------ 46.8- 42.8---
2026-05-03 11:32 pm E 1.0 1.9------ 46.9- 43.0---
2026-05-03 11:22 pm- 0.0 1.9------ 46.8- 42.8---
2026-05-03 11:12 pm NE 2.9 5.1------ 46.6- 42.6---
2026-05-03 11:02 pmNNE 1.9 6.0------ 47.3- 43.0---
2026-05-03 10:52 pm SW 5.1 9.9------ 47.3- 43.0---
2026-05-03 10:42 pm E 4.1 7.0------ 47.3- 43.0---
2026-05-03 10:32 pm E 5.1 8.0------ 47.5- 42.8---
2026-05-03 10:22 pmSSW 8.0 12.0------ 48.2- 43.0---
2026-05-03 10:12 pm S 8.9 15.0------ 48.7- 43.2---
2026-05-03 10:02 pm S 11.1 15.9------ 48.9- 43.3---
2026-05-03 09:52 pmSSW 11.1 14.0------ 48.6- 43.3---
2026-05-03 09:42 pm S 12.0 17.1------ 48.9- 43.3---
2026-05-03 09:32 pm S 13.0 17.1------ 49.1- 43.2---
2026-05-03 09:22 pmSSW 15.0 18.1------ 49.1- 43.2---
2026-05-03 09:02 pmSSW 15.0 19.0------ 48.9- 43.0---
2026-05-03 08:52 pmSSW 14.0 18.1------ 48.9- 43.3---
2026-05-03 08:42 pmSSW 14.0 18.1------ 48.9- 43.3---
2026-05-03 08:32 pm S 14.0 20.0------ 48.9- 43.0---
2026-05-03 08:22 pm S 14.0 19.0------ 48.9- 43.3---
2026-05-03 08:12 pmSSW 14.0 22.0------ 48.9- 43.3---
2026-05-03 08:02 pmSSW 14.0 20.0------ 48.9- 43.0---
2026-05-03 07:52 pmSSW 15.9 22.0------ 49.1- 43.2---
2026-05-03 07:42 pmSSW 14.0 21.0------ 48.9- 43.0---
2026-05-03 07:32 pmSSW 14.0 21.0------ 49.1- 43.2---
2026-05-03 07:22 pmSSW 13.0 17.1------ 49.1- 42.8---
2026-05-03 07:12 pmSSW 14.0 20.0------ 49.1- 42.8---
2026-05-03 07:02 pmSSW 15.0 21.0------ 48.9- 43.0---
2026-05-03 06:52 pmSSW 15.0 21.0------ 49.1- 42.8---
2026-05-03 06:42 pmSSW 14.0 18.1------ 49.1- 42.8---
2026-05-03 06:32 pmSSW 13.0 19.0------ 49.1- 42.8---
2026-05-03 06:22 pmSSW 13.0 19.0------ 49.1- 42.8---
2026-05-03 06:12 pm S 14.0 19.0------ 49.1- 42.6---
2026-05-03 06:02 pmSSW 14.0 21.0------ 49.1- 42.6---
2026-05-03 05:52 pmSSW 14.0 19.0------ 49.1- 42.6---
2026-05-03 05:42 pmSSW 14.0 19.0------ 49.1- 42.6---
2026-05-03 05:32 pmSSW 14.0 18.1------ 49.5- 42.3---
2026-05-03 05:22 pmSSW 13.0 20.0------ 49.5- 42.6---
2026-05-03 05:12 pmSSW 13.0 19.0------ 49.5- 42.6---
2026-05-03 05:02 pmSSW 13.0 19.0------ 49.5- 42.8---
2026-05-03 04:52 pmSSW 12.0 17.1------ 49.5- 42.8---
2026-05-03 04:42 pmSSW 12.0 18.1------ 49.5- 42.8---
2026-05-03 04:32 pmSSW 14.0 19.0------ 49.1- 42.8---
2026-05-03 04:22 pmSSW 15.0 21.0------ 49.1- 42.6---
2026-05-03 04:12 pmSSW 15.0 20.0------ 49.1- 42.6---
2026-05-03 04:02 pmSSW 15.9 20.0------ 49.3- 42.4---
2026-05-03 03:52 pmSSW 14.0 19.0------ 49.5- 42.6---
2026-05-03 03:42 pmSSW 14.0 18.1------ 49.5- 42.6---
2026-05-03 03:32 pmSSW 13.0 20.0------ 49.8- 42.3---
2026-05-03 03:22 pmSSW 12.0 15.0------ 49.5- 42.3---
2026-05-03 03:12 pmSSW 12.0 17.1------ 49.3- 42.1---
2026-05-03 03:02 pmSSW 12.0 18.1------ 49.8- 42.3---
2026-05-03 02:52 pmSSW 11.1 17.1------ 49.8- 41.9---
2026-05-03 02:42 pmSSW 8.9 15.0------ 50.0- 42.1---
2026-05-03 02:32 pmSSW 8.9 15.0------ 49.8- 42.3---
2026-05-03 02:22 pmSSW 12.0 17.1------ 49.8- 41.9---
2026-05-03 02:12 pmSSW 13.0 18.1------ 49.6- 41.7---
2026-05-03 02:02 pmSSW 14.0 18.1------ 49.5- 41.5---
2026-05-03 01:52 pmSSW 13.0 18.1------ 49.6- 41.4---
2026-05-03 01:42 pmSSW 13.0 19.0------ 49.6- 41.7---
2026-05-03 01:32 pmSSW 15.0 20.0------ 49.5- 41.9---
2026-05-03 01:22 pmSSW 13.0 18.1------ 49.3- 42.1---
2026-05-03 01:12 pmSSW 13.0 19.0------ 49.3- 42.1---
2026-05-03 01:02 pmSSW 12.0 18.1------ 49.1- 42.6---
2026-05-03 12:52 pmSSW 11.1 17.1------ 49.1- 42.3---
2026-05-03 12:42 pmSSW 11.1 15.9------ 49.3- 42.1---
2026-05-03 12:32 pmSSW 12.0 17.1------ 49.1- 41.9---
2026-05-03 12:22 pmSSW 12.0 17.1------ 49.1- 41.9---
2026-05-03 12:12 pmSSW 13.0 18.1------ 48.9- 42.4---
2026-05-03 12:02 pmSSW 13.0 19.0------ 48.7- 42.3---
2026-05-03 11:52 amSSW 13.0 19.0------ 48.7- 41.9---